Atlanta, Georgia
Traffic Map
Current Weather Conditions
Atlanta, Georgia
Few Clouds
Few Clouds
49°
Feels Like: 45°
Wind Chill: 45° Ceiling: Unl
Heat Index: 49° Visibility: 10mi
Dew Point: 30° Wind: 10mph
Humidity: 48% Direction: 100° (E)
Pressure: 30.3in Gusts: 0mph
Raw Report DataKATL 170352Z 10009KT 10SM FEW250 09/M01 A3030 RMK AO2 SLP264 T00941011
Traffic Incident Summary
Active as of:
Severity:
Category:
InformationThere was an issue retrieving the traffic information for this location. Please try a different location or try again shortly.
Advertisements
At Last! Intellicast now available for iPhone and Android